createdAt,value
2018-06-04T00:02:22.465Z,33.20
2018-06-04T00:04:50.893Z,38.67
2018-06-04T00:07:19.670Z,36.57
2018-06-04T00:09:52.266Z,33.83
2018-06-04T00:12:20.662Z,38.70
2018-06-04T00:14:51.386Z,32.27
2018-06-04T00:17:20.615Z,36.90
2018-06-04T00:19:49.025Z,33.00
2018-06-04T00:22:17.428Z,39.80
2018-06-04T00:24:45.912Z,34.13
2018-06-04T00:27:14.401Z,44.03
2018-06-04T00:29:44.268Z,40.97
2018-06-04T00:32:13.493Z,42.40
2018-06-04T00:34:42.542Z,38.03
2018-06-04T00:37:10.913Z,41.83
2018-06-04T00:39:39.360Z,39.57
2018-06-04T00:42:07.870Z,41.83
2018-06-04T00:44:36.855Z,45.63
2018-06-04T00:47:05.351Z,40.23
2018-06-04T00:49:33.972Z,50.43
2018-06-04T00:52:02.374Z,42.97
2018-06-04T00:54:30.817Z,46.30
2018-06-04T00:56:59.193Z,39.77
2018-06-04T00:59:27.954Z,43.00
2018-06-04T01:01:56.648Z,35.70
2018-06-04T01:04:25.315Z,46.80
2018-06-04T01:06:54.465Z,45.40
2018-06-04T01:09:23.075Z,42.27
2018-06-04T01:11:51.588Z,42.87
2018-06-04T01:14:21.370Z,48.10
2018-06-04T01:16:50.226Z,45.50
2018-06-04T01:19:18.582Z,43.10
2018-06-04T01:21:47.665Z,39.87
2018-06-04T01:24:17.487Z,49.33
2018-06-04T01:26:46.479Z,46.63
2018-06-04T01:29:15.095Z,52.77
2018-06-04T01:31:43.848Z,48.70
2018-06-04T01:34:13.222Z,41.40
2018-06-04T01:36:42.138Z,47.40
2018-06-04T01:39:10.613Z,52.83
2018-06-04T01:41:39.337Z,49.60
2018-06-04T01:44:07.753Z,44.20
2018-06-04T01:46:36.191Z,51.73
2018-06-04T01:49:04.674Z,48.23
2018-06-04T01:51:33.163Z,50.17
2018-06-04T01:54:01.570Z,62.40
2018-06-04T01:56:30.976Z,59.23
2018-06-04T01:59:00.073Z,55.90
2018-06-04T02:01:28.860Z,56.30
2018-06-04T02:03:57.277Z,64.53
2018-06-04T02:06:27.868Z,46.80
2018-06-04T02:08:57.037Z,50.70
2018-06-04T02:11:25.797Z,56.77
2018-06-04T02:13:54.297Z,67.47
2018-06-04T02:16:22.969Z,73.07
2018-06-04T02:18:51.546Z,72.23
2018-06-04T02:21:20.230Z,66.37
2018-06-04T02:23:48.628Z,66.33
2018-06-04T02:26:17.261Z,66.87
2018-06-04T02:28:45.689Z,70.87
2018-06-04T02:31:14.672Z,63.37
2018-06-04T02:33:43.635Z,71.57
2018-06-04T02:36:12.393Z,69.50
2018-06-04T02:38:40.872Z,64.60
2018-06-04T02:41:09.334Z,64.90
2018-06-04T02:43:37.828Z,65.30
2018-06-04T02:46:07.424Z,70.27
2018-06-04T02:48:35.876Z,82.20
2018-06-04T02:51:04.349Z,86.07
2018-06-04T02:53:32.696Z,79.87
2018-06-04T02:56:01.160Z,76.83
2018-06-04T02:58:29.565Z,83.83
2018-06-04T03:00:58.035Z,89.33
2018-06-04T03:03:26.517Z,84.50
2018-06-04T03:05:54.816Z,86.10
2018-06-04T03:08:23.297Z,77.93
2018-06-04T03:10:52.466Z,80.40
2018-06-04T03:13:21.621Z,80.93
2018-06-04T03:15:50.055Z,71.17
2018-06-04T03:18:18.646Z,78.30
2018-06-04T03:20:47.108Z,68.77
2018-06-04T03:23:15.506Z,69.13
2018-06-04T03:25:43.990Z,77.73
2018-06-04T03:28:13.014Z,59.40
2018-06-04T03:30:41.658Z,70.50
2018-06-04T03:33:10.478Z,73.83
2018-06-04T03:35:38.930Z,81.70
2018-06-04T03:38:07.398Z,85.20
2018-06-04T03:40:35.926Z,86.00
2018-06-04T03:43:04.390Z,79.53
2018-06-04T03:45:32.746Z,91.90
2018-06-04T03:48:01.417Z,94.97
2018-06-04T03:50:30.015Z,95.50
2018-06-04T03:52:58.434Z,90.00
2018-06-04T03:55:27.024Z,89.00
2018-06-04T03:57:55.694Z,93.50
2018-06-04T04:00:24.707Z,84.50
2018-06-04T04:02:53.102Z,83.73
2018-06-04T04:05:22.224Z,77.20
2018-06-04T04:07:51.705Z,73.83
2018-06-04T04:10:20.166Z,62.30
2018-06-04T04:12:48.596Z,70.33
2018-06-04T04:15:17.377Z,57.27
2018-06-04T04:17:46.449Z,64.10
2018-06-04T04:20:15.204Z,55.10
2018-06-04T04:22:43.530Z,51.47
2018-06-04T04:25:12.609Z,60.23
2018-06-04T04:27:41.074Z,55.80
2018-06-04T04:30:10.437Z,57.77
2018-06-04T04:32:39.019Z,58.70
2018-06-04T04:35:07.801Z,48.70
2018-06-04T04:37:36.226Z,54.63
2018-06-04T04:40:04.971Z,50.90
2018-06-04T04:42:33.417Z,54.03
2018-06-04T04:45:02.036Z,48.27
2018-06-04T04:47:30.570Z,45.13
2018-06-04T04:49:59.044Z,50.93
2018-06-04T04:52:27.879Z,53.00
2018-06-04T04:54:56.965Z,54.07
2018-06-04T04:57:25.456Z,41.10
2018-06-04T04:59:54.373Z,46.67
2018-06-04T05:02:23.137Z,50.60
2018-06-04T05:04:52.702Z,49.57
2018-06-04T05:07:21.166Z,53.97
2018-06-04T05:09:50.517Z,48.33
2018-06-04T05:12:19.228Z,46.97
2018-06-04T05:14:47.644Z,48.03
2018-06-04T05:17:16.078Z,47.80
2018-06-04T05:19:44.513Z,52.80
2018-06-04T05:22:13.026Z,51.53
2018-06-04T05:24:41.662Z,54.03
2018-06-04T05:27:10.504Z,58.93
2018-06-04T05:29:39.074Z,51.27
2018-06-04T05:32:07.553Z,51.87
2018-06-04T05:34:36.034Z,56.43
2018-06-04T05:37:05.191Z,44.97
2018-06-04T05:39:33.542Z,50.13
2018-06-04T05:42:02.123Z,50.37
2018-06-04T05:44:30.797Z,57.83
2018-06-04T05:46:59.891Z,57.90
2018-06-04T05:49:28.723Z,50.40
2018-06-04T05:51:59.148Z,52.37
2018-06-04T05:54:28.018Z,52.40
2018-06-04T05:56:59.315Z,49.67
2018-06-04T05:59:27.933Z,42.87
2018-06-04T06:01:56.318Z,50.00
2018-06-04T06:04:25.041Z,45.43
2018-06-04T06:06:54.183Z,45.73
2018-06-04T06:09:22.632Z,41.90
2018-06-04T06:11:51.256Z,50.73
2018-06-04T06:14:20.093Z,47.53
2018-06-04T06:16:50.799Z,41.00
2018-06-04T06:19:19.321Z,49.90
2018-06-04T06:21:47.884Z,54.37
2018-06-04T06:24:16.518Z,34.60
2018-06-04T06:26:45.314Z,41.97
2018-06-04T06:29:15.509Z,39.53
2018-06-04T06:31:44.524Z,45.90
2018-06-04T06:34:13.860Z,38.17
2018-06-04T06:36:42.288Z,44.37
2018-06-04T06:39:10.901Z,36.93
2018-06-04T06:41:39.633Z,41.23
2018-06-04T06:44:08.335Z,38.77
2018-06-04T06:46:36.705Z,39.00
2018-06-04T06:49:05.742Z,33.80
2018-06-04T06:51:34.127Z,31.73
2018-06-04T06:54:04.102Z,34.90
2018-06-04T06:56:32.822Z,33.47
2018-06-04T06:59:01.170Z,39.07
2018-06-04T07:01:30.256Z,32.43
2018-06-04T07:03:58.627Z,36.57
2018-06-04T07:06:26.964Z,36.33
2018-06-04T07:08:55.550Z,26.90
2018-06-04T07:11:24.132Z,25.83
2018-06-04T07:13:52.586Z,30.90
2018-06-04T07:16:20.924Z,32.37
2018-06-04T07:18:50.568Z,34.67
2018-06-04T07:21:21.891Z,31.60
2018-06-04T07:23:50.328Z,33.23
2018-06-04T07:26:18.789Z,30.93
2018-06-04T07:28:47.227Z,34.10
2018-06-04T07:31:15.710Z,26.53
2018-06-04T07:33:44.093Z,27.83
2018-06-04T07:36:13.069Z,22.20
2018-06-04T07:38:41.529Z,30.43
2018-06-04T07:41:09.986Z,27.70
2018-06-04T07:43:38.423Z,25.50
2018-06-04T07:46:06.749Z,30.47
2018-06-04T07:48:35.317Z,25.57
2018-06-04T07:51:04.318Z,25.67
2018-06-04T07:53:32.702Z,21.93
2018-06-04T07:56:01.367Z,32.67
2018-06-04T07:58:30.512Z,36.03
2018-06-04T08:00:59.151Z,27.47
2018-06-04T08:03:28.808Z,23.67
2018-06-04T08:05:57.471Z,25.30
2018-06-04T08:08:26.301Z,24.77
2018-06-04T08:10:54.725Z,22.60
2018-06-04T08:13:23.055Z,22.40
2018-06-04T08:15:51.560Z,20.90
2018-06-04T08:18:19.948Z,28.30
2018-06-04T08:20:48.102Z,20.27
2018-06-04T08:23:16.742Z,24.03
2018-06-04T08:25:45.099Z,23.20
2018-06-04T08:28:13.695Z,29.67
2018-06-04T08:30:42.524Z,31.40
2018-06-04T08:33:10.888Z,23.23
2018-06-04T08:35:39.360Z,21.57
2018-06-04T08:38:07.948Z,22.20
2018-06-04T08:40:37.294Z,17.80
2018-06-04T08:43:06.172Z,26.00
2018-06-04T08:45:35.224Z,23.47
2018-06-04T08:48:03.600Z,24.20
2018-06-04T08:50:32.131Z,22.43
2018-06-04T08:53:00.675Z,29.07
2018-06-04T08:55:29.105Z,27.73
2018-06-04T08:57:57.538Z,17.90
2018-06-04T09:00:26.162Z,30.43
2018-06-04T09:02:54.633Z,24.23
2018-06-04T09:05:23.514Z,26.30
2018-06-04T09:07:51.996Z,24.73
2018-06-04T09:10:20.332Z,24.50
2018-06-04T09:12:48.868Z,35.63
2018-06-04T09:15:17.688Z,32.37
2018-06-04T09:17:46.233Z,24.73
2018-06-04T09:20:15.263Z,28.90
2018-06-04T09:22:43.609Z,28.00
2018-06-04T09:25:12.012Z,20.43
2018-06-04T09:27:41.387Z,21.30
2018-06-04T09:30:10.016Z,22.73
2018-06-04T09:32:38.479Z,34.93
2018-06-04T09:35:08.020Z,23.87
2018-06-04T09:37:36.654Z,27.93
2018-06-04T09:40:10.000Z,23.97
2018-06-04T09:42:38.558Z,26.00
2018-06-04T09:45:07.451Z,23.90
2018-06-04T09:47:35.917Z,28.60
2018-06-04T09:50:04.283Z,24.47
2018-06-04T09:52:32.908Z,29.33
2018-06-04T09:55:01.322Z,29.80
2018-06-04T09:57:29.726Z,23.80
2018-06-04T09:59:59.272Z,27.30
2018-06-04T10:02:27.712Z,29.53
2018-06-04T10:04:56.194Z,26.50
2018-06-04T10:07:24.729Z,21.40
2018-06-04T10:09:56.617Z,22.20
2018-06-04T10:12:24.968Z,25.87
2018-06-04T10:14:53.643Z,24.63
2018-06-04T10:17:22.081Z,29.67
2018-06-04T10:19:50.444Z,35.10
2018-06-04T10:22:18.853Z,19.73
2018-06-04T10:24:47.277Z,22.47
2018-06-04T10:27:15.812Z,41.83
2018-06-04T10:29:44.387Z,24.90
2018-06-04T10:32:12.899Z,21.90
2018-06-04T10:34:41.383Z,20.33
2018-06-04T10:37:09.823Z,17.93
2018-06-04T10:39:38.261Z,20.73
2018-06-04T10:42:07.219Z,20.53
2018-06-04T10:44:36.472Z,25.77
2018-06-04T10:47:05.768Z,21.47
2018-06-04T10:49:33.992Z,25.43
2018-06-04T10:52:02.431Z,28.17
2018-06-04T10:54:31.130Z,15.87
2018-06-04T10:56:59.462Z,22.50
2018-06-04T10:59:28.155Z,14.53
2018-06-04T11:01:56.565Z,14.83
2018-06-04T11:04:25.074Z,13.83
2018-06-04T11:06:53.522Z,15.80
2018-06-04T11:09:22.003Z,14.40
2018-06-04T11:11:50.429Z,14.20
2018-06-04T11:14:18.844Z,15.27
2018-06-04T11:16:47.393Z,12.40
2018-06-04T11:19:15.472Z,12.20
2018-06-04T11:21:48.146Z,13.90
2018-06-04T11:24:17.028Z,13.37
2018-06-04T11:26:45.517Z,14.30
2018-06-04T11:29:14.024Z,11.80
2018-06-04T11:31:42.786Z,11.73
2018-06-04T11:34:11.470Z,10.57
2018-06-04T11:36:39.889Z,10.97
2018-06-04T11:39:08.431Z,10.97
2018-06-04T11:41:36.851Z,13.37
2018-06-04T11:44:05.261Z,11.20
2018-06-04T11:46:33.695Z,11.07
2018-06-04T11:49:02.106Z,9.57
2018-06-04T11:51:30.280Z,10.13
2018-06-04T11:53:58.703Z,11.77
2018-06-04T11:56:27.210Z,16.67
2018-06-04T11:58:55.844Z,13.03
2018-06-04T12:01:24.546Z,11.00
2018-06-04T12:03:52.972Z,11.70
2018-06-04T12:06:22.067Z,15.03
2018-06-04T12:08:50.614Z,11.27
2018-06-04T12:11:19.115Z,13.10
2018-06-04T12:13:47.501Z,19.53
2018-06-04T12:16:18.104Z,13.10
2018-06-04T12:18:46.579Z,12.03
2018-06-04T12:21:15.089Z,14.80
2018-06-04T12:23:44.135Z,15.70
2018-06-04T12:26:12.531Z,14.50
2018-06-04T12:28:41.306Z,17.43
2018-06-04T12:31:12.239Z,11.90
2018-06-04T12:33:40.885Z,9.80
2018-06-04T12:36:10.418Z,12.03
2018-06-04T12:38:38.842Z,12.77
2018-06-04T12:41:07.195Z,22.57
2018-06-04T12:43:35.742Z,28.00
2018-06-04T12:46:04.154Z,21.87
2018-06-04T12:48:32.999Z,25.50
2018-06-04T12:51:02.112Z,22.63
2018-06-04T12:53:30.795Z,24.03
2018-06-04T12:55:59.213Z,25.67
2018-06-04T12:58:27.714Z,25.20
2018-06-04T13:00:56.764Z,28.47
2018-06-04T13:03:25.210Z,29.20
2018-06-04T13:05:53.607Z,21.07
2018-06-04T13:08:22.062Z,25.00
2018-06-04T13:10:50.820Z,32.00
2018-06-04T13:13:19.260Z,37.37
2018-06-04T13:15:48.088Z,27.80
2018-06-04T13:18:16.548Z,32.97
2018-06-04T13:20:45.015Z,28.27
2018-06-04T13:23:13.552Z,30.60
2018-06-04T13:25:41.962Z,41.93
2018-06-04T13:28:10.428Z,35.40
2018-06-04T13:30:38.793Z,32.20
2018-06-04T13:33:07.971Z,30.20
2018-06-04T13:35:36.425Z,38.30
2018-06-04T13:38:05.171Z,46.63
2018-06-04T13:40:35.078Z,31.03
2018-06-04T13:43:03.527Z,43.27
2018-06-04T13:45:33.228Z,28.07
2018-06-04T13:48:01.660Z,27.33
2018-06-04T13:50:30.961Z,31.00
2018-06-04T13:53:00.322Z,36.00
2018-06-04T13:55:30.236Z,33.70
2018-06-04T13:57:58.638Z,33.53
2018-06-04T14:00:27.203Z,41.13
2018-06-04T14:02:55.993Z,30.70
2018-06-04T14:05:24.392Z,29.70
2018-06-04T14:07:52.928Z,25.33
2018-06-04T14:10:21.246Z,23.63
2018-06-04T14:12:50.025Z,25.47
2018-06-04T14:15:19.656Z,25.47
2018-06-04T14:17:48.098Z,31.40
2018-06-04T14:20:17.545Z,27.83
2018-06-04T14:22:46.069Z,31.00
2018-06-04T14:25:16.676Z,31.03
2018-06-04T14:27:45.087Z,25.43
2018-06-04T14:30:17.205Z,29.80
2018-06-04T14:32:45.781Z,25.07
2018-06-04T14:35:15.174Z,28.63
2018-06-04T14:37:43.612Z,23.57
2018-06-04T14:40:12.357Z,29.73
2018-06-04T14:42:40.870Z,28.93
2018-06-04T14:45:09.432Z,27.63
2018-06-04T14:47:43.103Z,31.13
2018-06-04T14:50:12.106Z,27.43
2018-06-04T14:52:40.531Z,36.53
2018-06-04T14:55:09.521Z,30.43
2018-06-04T14:57:37.928Z,31.13
2018-06-04T15:00:06.831Z,25.93
2018-06-04T15:02:35.305Z,27.93
2018-06-04T15:05:04.196Z,30.13
2018-06-04T15:07:32.703Z,37.13
2018-06-04T15:10:01.846Z,25.93
2018-06-04T15:12:30.250Z,30.50
2018-06-04T15:14:58.810Z,28.40
2018-06-04T15:17:28.331Z,31.80
2018-06-04T15:19:56.857Z,39.60
2018-06-04T15:22:25.733Z,35.10
2018-06-04T15:24:54.174Z,31.80
2018-06-04T15:27:22.813Z,23.53
2018-06-04T15:29:53.820Z,28.83
2018-06-04T15:32:23.041Z,28.93
2018-06-04T15:34:51.566Z,32.77
2018-06-04T15:37:19.984Z,27.80
2018-06-04T15:39:48.797Z,29.77
2018-06-04T15:42:17.416Z,33.50
2018-06-04T15:44:45.916Z,29.13
2018-06-04T15:47:14.295Z,33.73
2018-06-04T15:49:42.717Z,28.20
2018-06-04T15:52:11.319Z,30.07
2018-06-04T15:54:39.738Z,31.70
2018-06-04T15:57:08.253Z,29.47
2018-06-04T15:59:36.685Z,32.03
2018-06-04T16:02:05.335Z,33.40
2018-06-04T16:04:33.852Z,35.73
2018-06-04T16:07:02.587Z,44.97
2018-06-04T16:09:31.561Z,32.70
2018-06-04T16:12:00.032Z,31.17
2018-06-04T16:14:29.361Z,37.27
2018-06-04T16:16:57.796Z,40.43
2018-06-04T16:19:26.418Z,34.93
2018-06-04T16:21:54.763Z,29.03
2018-06-04T16:24:23.327Z,30.63
2018-06-04T16:26:51.673Z,22.97
2018-06-04T16:29:20.148Z,23.43
2018-06-04T16:31:48.765Z,26.50
2018-06-04T16:34:18.193Z,33.00
2018-06-04T16:36:46.972Z,22.37
2018-06-04T16:39:19.807Z,22.43
2018-06-04T16:41:48.382Z,25.00
2018-06-04T16:44:16.964Z,23.17
2018-06-04T16:46:45.602Z,27.37
2018-06-04T16:49:14.201Z,27.27
2018-06-04T16:51:42.667Z,24.60
2018-06-04T16:54:11.355Z,17.37
2018-06-04T16:56:40.334Z,24.10
2018-06-04T16:59:09.948Z,28.47
2018-06-04T17:01:40.305Z,18.13
2018-06-04T17:04:11.490Z,21.60
2018-06-04T17:06:41.695Z,25.97
2018-06-04T17:09:10.593Z,25.87
2018-06-04T17:11:39.551Z,25.90
2018-06-04T17:14:08.096Z,32.53
2018-06-04T17:16:37.034Z,27.00
2018-06-04T17:19:06.890Z,27.77
2018-06-04T17:21:35.680Z,24.50
2018-06-04T17:24:05.014Z,32.20
2018-06-04T17:26:34.416Z,27.23
2018-06-04T17:29:03.109Z,27.53
2018-06-04T17:31:32.692Z,24.37
2018-06-04T17:34:02.492Z,21.97
2018-06-04T17:39:23.769Z,31.50
2018-06-04T17:41:52.658Z,25.83
2018-06-04T17:44:21.219Z,23.20
2018-06-04T17:46:49.978Z,28.93
2018-06-04T17:49:19.687Z,26.70
2018-06-04T17:51:48.723Z,30.23
2018-06-04T17:54:17.653Z,29.13
2018-06-04T17:56:46.186Z,54.50
2018-06-04T17:59:15.630Z,25.50
2018-06-04T18:01:44.689Z,28.50
2018-06-04T18:04:13.275Z,37.20
2018-06-04T18:06:42.140Z,28.70
2018-06-04T18:09:13.630Z,26.80
2018-06-04T18:11:46.976Z,24.70
2018-06-04T18:14:15.876Z,27.60
2018-06-04T18:16:48.119Z,29.90
2018-06-04T18:19:17.296Z,53.80
2018-06-04T18:21:46.151Z,96.10
2018-06-04T18:24:20.406Z,26.30
2018-06-04T18:26:54.053Z,25.93
2018-06-04T18:29:26.583Z,27.20
2018-06-04T18:31:55.212Z,28.80
2018-06-04T18:34:23.632Z,33.50
2018-06-04T18:36:52.106Z,25.00
2018-06-04T18:39:20.603Z,25.70
2018-06-04T18:41:49.124Z,28.80
2018-06-04T18:44:18.114Z,25.87
2018-06-04T18:46:47.408Z,24.70
2018-06-04T18:57:54.792Z,32.20
2018-06-04T19:00:26.673Z,31.70
2018-06-04T19:02:55.294Z,26.43
2018-06-04T19:05:24.131Z,35.50
2018-06-04T19:07:53.202Z,30.83
2018-06-04T19:10:21.696Z,25.17
2018-06-04T19:12:53.584Z,32.73
2018-06-04T19:15:22.029Z,22.73
2018-06-04T19:17:50.941Z,25.40
2018-06-04T19:20:20.403Z,29.67
2018-06-04T19:22:49.029Z,26.53
2018-06-04T19:25:18.245Z,34.57
2018-06-04T19:27:47.541Z,34.13
2018-06-04T19:30:16.553Z,33.70
2018-06-04T19:32:44.939Z,50.47
2018-06-04T19:35:13.426Z,55.20
2018-06-04T19:37:41.921Z,35.00
2018-06-04T19:40:10.447Z,43.83
2018-06-04T19:42:39.141Z,41.73
2018-06-04T19:45:07.616Z,33.13
2018-06-04T19:47:36.088Z,36.23
2018-06-04T19:50:04.770Z,30.97
2018-06-04T19:52:33.679Z,28.07
2018-06-04T19:55:02.132Z,28.80
2018-06-04T19:57:30.698Z,42.40
2018-06-04T20:00:00.002Z,31.83
2018-06-04T20:02:29.410Z,35.80
2018-06-04T20:04:58.761Z,44.10
2018-06-04T20:07:28.495Z,38.73
2018-06-04T20:09:57.356Z,30.57
2018-06-04T20:12:26.838Z,32.20
2018-06-04T20:14:55.388Z,29.83
2018-06-04T20:17:24.059Z,23.00
2018-06-04T20:19:52.509Z,28.83
2018-06-04T20:22:21.294Z,27.03
2018-06-04T20:24:49.781Z,29.53
2018-06-04T20:27:18.353Z,32.60
2018-06-04T20:29:46.878Z,29.40
2018-06-04T20:32:15.940Z,49.80
2018-06-04T20:34:45.726Z,28.77
2018-06-04T20:37:15.308Z,27.77
2018-06-04T20:39:43.755Z,34.70
2018-06-04T20:42:12.343Z,41.83
2018-06-04T20:44:41.579Z,30.30
2018-06-04T20:47:10.252Z,31.70
2018-06-04T20:49:38.701Z,30.67
2018-06-04T20:52:07.854Z,34.17
2018-06-04T20:54:36.341Z,31.57
2018-06-04T20:57:08.733Z,48.03
2018-06-04T20:59:37.805Z,40.40
2018-06-04T21:02:06.330Z,37.67
2018-06-04T21:04:35.472Z,42.50
2018-06-04T21:07:04.455Z,38.77
2018-06-04T21:09:32.985Z,40.33
2018-06-04T21:12:01.661Z,54.80
2018-06-04T21:14:30.029Z,32.50
2018-06-04T21:16:58.539Z,27.90
2018-06-04T21:19:27.034Z,31.67
2018-06-04T21:21:55.629Z,45.30
2018-06-04T21:24:24.213Z,49.17
2018-06-04T21:26:52.626Z,51.53
2018-06-04T21:29:21.055Z,35.03
2018-06-04T21:31:49.648Z,33.00
2018-06-04T21:34:18.108Z,34.63
2018-06-04T21:36:46.719Z,39.70
2018-06-04T21:39:15.151Z,31.90
2018-06-04T21:41:43.720Z,34.90
2018-06-04T21:44:12.299Z,32.90
2018-06-04T21:46:40.827Z,40.17
2018-06-04T21:49:09.376Z,37.87
2018-06-04T21:51:37.776Z,39.43
2018-06-04T21:54:06.371Z,47.40
2018-06-04T21:56:34.780Z,38.07
2018-06-04T21:59:03.148Z,41.83
2018-06-04T22:01:31.604Z,45.13
2018-06-04T22:04:00.002Z,40.43
2018-06-04T22:06:28.529Z,44.20
2018-06-04T22:08:57.061Z,40.70
2018-06-04T22:11:26.612Z,42.93
2018-06-04T22:13:57.431Z,37.97
2018-06-04T22:16:26.449Z,59.03
2018-06-04T22:18:54.887Z,41.83
2018-06-04T22:21:24.097Z,41.97
2018-06-04T22:23:52.578Z,44.60
2018-06-04T22:26:20.908Z,49.07
2018-06-04T22:28:49.435Z,55.03
2018-06-04T22:31:17.866Z,49.80
2018-06-04T22:33:46.290Z,45.70
2018-06-04T22:36:14.740Z,48.90
2018-06-04T22:38:46.254Z,48.13
2018-06-04T22:41:14.611Z,46.23
2018-06-04T22:43:43.165Z,46.80
2018-06-04T22:46:11.609Z,51.10
2018-06-04T22:48:40.075Z,43.87
2018-06-04T22:51:08.436Z,50.37
2018-06-04T22:53:36.951Z,48.27
2018-06-04T22:56:05.538Z,54.73
2018-06-04T22:58:34.010Z,49.67
2018-06-04T23:01:02.386Z,49.13
2018-06-04T23:03:30.820Z,53.47
2018-06-04T23:05:59.253Z,44.90
2018-06-04T23:08:27.756Z,51.43
2018-06-04T23:10:56.183Z,57.97
2018-06-04T23:13:24.635Z,52.47
2018-06-04T23:15:52.983Z,56.37
2018-06-04T23:18:21.388Z,48.83
2018-06-04T23:20:49.889Z,53.53
2018-06-04T23:23:18.375Z,57.87
2018-06-04T23:25:46.769Z,49.80
2018-06-04T23:28:15.185Z,51.63
2018-06-04T23:30:43.636Z,56.10
2018-06-04T23:33:12.051Z,53.27
2018-06-04T23:35:40.376Z,53.73
2018-06-04T23:38:08.806Z,56.90
2018-06-04T23:40:37.408Z,57.00
2018-06-04T23:43:05.874Z,60.93
2018-06-04T23:45:34.300Z,66.93
2018-06-04T23:48:02.770Z,59.60
2018-06-04T23:50:31.221Z,59.10
2018-06-04T23:52:59.643Z,57.57
2018-06-04T23:55:28.005Z,65.57
2018-06-04T23:57:56.408Z,62.30
